首页
METAR-TAF:

METAR-TAF

机场 :

洛杉磯國際機場

洛杉矶, 加利福尼亚州, 美国

纬度: 33-56-17N, 经度: 118-23-20W, 海拔: 38米

当前天气观测

该预报发布于8分钟前的01:53 UTC
风速14节,风向西
温度 21°C
湿度 73%
气压 1012 hPa
能見度: 16.1公里
少量云层高于1200英尺
少量云层高于25000英尺

METAR: KLAX 190153Z 27014KT 10SM FEW012 FEW250 21/16 A2987 RMK AO2 SLP113 T02060156 $

时间: 19:01 (02:01 UTC)

预报

该预报发布于2小时和27分钟前的23:34 UTC
预报有效从19日的 00点(UTC)到 20日的 06点(UTC)
风速12节,风向西
能見度: 10公里
散云层高于25000英尺
从 19日的 0400点(UTC)
风速8节,风向西转西南
能見度: 10公里
少量云层高于1700英尺
散云层高于25000英尺
从 19日的 0700点(UTC)
风速3节,风向多变
能見度: 10公里
阴天层高于1200英尺
从 19日的 1600点(UTC)
风速5节,风向西转西南
能見度: 10公里
多云层高于1700英尺
从 19日的 1730点(UTC)
风速12节,风向西
能見度: 10公里
少量云层高于1700英尺
从 20日的 0400点(UTC)
风速8节,风向西转西南
能見度: 10公里
散云层高于1200英尺

TAF: KLAX 182334Z 1900/2006 26012KT P6SM SCT250 FM190400 25008KT P6SM FEW017 SCT250 FM190700 VRB03KT P6SM OVC012 FM191600 24005KT P6SM BKN017 FM191730 26012KT P6SM FEW017 FM200400 25008KT P6SM SCT012

超过4000个机场的气象观测和天气预报(METAR&TAF报告)。

可查询的气象台以黄色和红色小点在地图上表示。

将鼠标移到小点上方,可查看气象台名称。

然后点击查看天气观测和预报。

如需切换地图:点击带黑十字的绿色按钮放大地图;点击带横线的绿色按钮缩小地图;或者点击绿色箭头查看邻近地区的地图。


METAR-TAF: